Time;durP1;ratioP1;P1;durP2;ratioP2;P2;SDS_P1;SDS_P2;PMS_P1;PMS_P2;Temp;Humidity;BMP_temperature;BMP_pressure;BME280_temperature;BME280_humidity;BME280_pressure;Samples;Min_cycle;Max_cycle;Signal;HPM_P1;HPM_P2
2023/04/28 00:01:41;;;;;;;2.60;2.13;;;13.50;99.90;;;;;;5069340;28;20416;-71
2023/04/28 00:04:07;;;;;;;3.03;2.37;;;13.40;99.90;;;;;;5069607;28;20440;-71
2023/04/28 00:06:33;;;;;;;2.67;2.20;;;13.40;99.90;;;;;;5069139;28;20189;-72
2023/04/28 00:08:58;;;;;;;3.40;2.43;;;13.40;99.90;;;;;;5069269;28;20191;-71
2023/04/28 00:11:24;;;;;;;2.10;2.00;;;13.40;99.90;;;;;;5069100;28;20524;-71
2023/04/28 00:13:50;;;;;;;3.13;2.10;;;13.40;99.90;;;;;;5067918;28;20819;-71
2023/04/28 00:16:16;;;;;;;2.13;1.50;;;13.50;99.80;;;;;;5069062;28;20192;-71
2023/04/28 00:18:41;;;;;;;4.13;2.23;;;13.50;99.90;;;;;;5068998;28;20490;-71
2023/04/28 00:21:07;;;;;;;2.90;2.60;;;13.40;99.90;;;;;;5069009;28;20209;-71
2023/04/28 00:23:33;;;;;;;1.80;1.60;;;13.40;99.90;;;;;;5069072;28;20306;-70
2023/04/28 00:25:58;;;;;;;2.10;1.90;;;13.40;99.90;;;;;;5069242;28;20256;-71
2023/04/28 00:28:24;;;;;;;3.70;1.77;;;13.40;99.90;;;;;;5069073;28;20491;-71
2023/04/28 00:30:50;;;;;;;3.37;2.20;;;13.40;99.90;;;;;;5069040;28;20198;-71
2023/04/28 00:33:15;;;;;;;2.10;1.80;;;13.40;99.90;;;;;;5069346;28;20197;-71
2023/04/28 00:35:41;;;;;;;3.10;2.03;;;13.40;99.90;;;;;;5069155;28;20234;-71
2023/04/28 00:38:07;;;;;;;2.30;2.03;;;13.40;99.90;;;;;;5068845;28;20203;-71
2023/04/28 00:40:33;;;;;;;2.70;2.50;;;13.40;99.90;;;;;;5068829;28;20201;-71
2023/04/28 00:42:59;;;;;;;5.40;2.03;;;13.40;99.90;;;;;;5068774;28;20202;-71
2023/04/28 00:45:25;;;;;;;2.97;2.13;;;13.40;99.90;;;;;;5068548;28;20948;-71
2023/04/28 00:47:50;;;;;;;3.80;2.00;;;13.40;99.90;;;;;;5068585;28;20207;-71
2023/04/28 00:50:16;;;;;;;4.40;2.00;;;13.30;99.90;;;;;;5068447;28;20183;-70
2023/04/28 00:52:42;;;;;;;2.90;2.00;;;13.30;99.90;;;;;;5068582;28;20182;-71
2023/04/28 00:55:09;;;;;;;2.20;1.40;;;13.40;99.90;;;;;;5066708;28;20203;-72
2023/04/28 00:57:35;;;;;;;4.30;2.33;;;13.50;99.90;;;;;;5068471;28;20416;-72
2023/04/28 01:00:02;;;;;;;3.83;2.37;;;13.60;99.90;;;;;;5069238;28;20515;-72
2023/04/28 01:02:28;;;;;;;1.80;1.70;;;13.60;99.90;;;;;;5069068;28;21025;-71
2023/04/28 01:04:56;;;;;;;2.27;2.00;;;13.60;99.80;;;;;;5068995;28;20456;-71
2023/04/28 01:07:21;;;;;;;4.73;2.07;;;13.60;99.70;;;;;;5068810;28;20868;-72
2023/04/28 01:09:47;;;;;;;2.43;2.27;;;13.70;99.40;;;;;;5068800;28;20425;-72
2023/04/28 01:12:12;;;;;;;2.00;1.40;;;13.70;98.80;;;;;;5068524;28;20258;-71
2023/04/28 01:14:38;;;;;;;2.60;1.87;;;13.70;99.40;;;;;;5068394;28;20199;-71
2023/04/28 01:17:04;;;;;;;4.93;1.60;;;13.70;99.30;;;;;;5068344;28;20266;-71
2023/04/28 01:19:30;;;;;;;2.27;1.60;;;13.70;99.90;;;;;;5068179;28;21074;-71
2023/04/28 01:21:55;;;;;;;3.27;2.07;;;13.70;99.90;;;;;;5068285;28;20587;-71
2023/04/28 01:24:21;;;;;;;2.17;1.70;;;13.70;99.40;;;;;;5069035;28;20206;-71
2023/04/28 01:26:47;;;;;;;3.70;2.40;;;13.70;98.60;;;;;;5072037;28;20186;-71
2023/04/28 01:29:12;;;;;;;2.20;1.80;;;13.90;98.50;;;;;;5072064;28;20198;-71
2023/04/28 01:31:38;;;;;;;3.40;1.33;;;13.90;98.40;;;;;;5072350;28;20545;-71
2023/04/28 01:34:04;;;;;;;3.27;1.67;;;13.90;98.40;;;;;;5071993;28;20425;-71
2023/04/28 01:36:29;;;;;;;1.40;1.23;;;13.90;98.10;;;;;;5073548;28;20194;-71
2023/04/28 01:38:55;;;;;;;2.00;1.70;;;14.00;97.90;;;;;;5073986;28;20301;-71
2023/04/28 01:41:21;;;;;;;1.87;1.53;;;14.00;97.60;;;;;;5073968;28;20199;-71
2023/04/28 01:43:46;;;;;;;1.80;1.70;;;14.00;97.60;;;;;;5073571;28;20182;-71
2023/04/28 01:46:12;;;;;;;1.60;1.30;;;14.00;97.20;;;;;;5073706;28;20474;-71
2023/04/28 01:48:37;;;;;;;2.10;1.30;;;14.00;97.00;;;;;;5073556;28;20601;-71
2023/04/28 01:51:03;;;;;;;3.53;1.20;;;14.00;97.00;;;;;;5073806;28;20187;-71
2023/04/28 01:56:51;;;;;;;4.30;1.53;;;14.10;95.80;;;;;;5073254;28;20534;-71
2023/04/28 01:59:19;;;;;;;1.63;1.50;;;14.10;94.80;;;;;;5072426;28;20650;-69
2023/04/28 02:01:45;;;;;;;2.10;1.70;;;14.20;94.50;;;;;;5070468;28;20271;-72
2023/04/28 02:04:10;;;;;;;5.00;1.73;;;14.20;94.40;;;;;;5072543;28;20944;-72
2023/04/28 02:06:36;;;;;;;1.50;1.30;;;14.20;94.00;;;;;;5072154;28;20786;-72
2023/04/28 02:09:01;;;;;;;3.43;1.47;;;14.20;93.90;;;;;;5072082;28;20183;-71
2023/04/28 02:11:27;;;;;;;2.40;1.67;;;14.20;92.70;;;;;;5072034;28;20186;-72
2023/04/28 02:13:52;;;;;;;2.40;1.37;;;14.20;93.40;;;;;;5071652;28;20232;-71
2023/04/28 02:16:18;;;;;;;2.43;1.30;;;14.20;93.80;;;;;;5071431;28;20190;-71
2023/04/28 02:18:44;;;;;;;3.93;1.30;;;14.20;93.80;;;;;;5071217;28;20234;-71
2023/04/28 02:21:10;;;;;;;1.40;1.20;;;14.30;92.10;;;;;;5071125;28;20265;-71
2023/04/28 02:23:36;;;;;;;5.10;1.23;;;14.30;92.30;;;;;;5071186;28;20620;-71
2023/04/28 02:26:03;;;;;;;1.30;1.20;;;14.30;91.90;;;;;;5071037;28;20574;-71
2023/04/28 02:28:29;;;;;;;1.87;1.60;;;14.30;92.20;;;;;;5071048;28;20661;-71
2023/04/28 02:31:08;;;;;;;3.63;1.33;;;14.20;92.60;;;;;;5070980;28;20412;-71
2023/04/28 02:33:34;;;;;;;1.20;1.10;;;14.20;93.10;;;;;;5070828;28;20428;-71
2023/04/28 02:36:00;;;;;;;1.23;1.07;;;14.10;92.60;;;;;;5069458;28;20871;-71
2023/04/28 02:38:26;;;;;;;2.60;1.07;;;14.20;92.30;;;;;;5070655;28;20990;-71
2023/04/28 02:41:03;;;;;;;2.10;1.90;;;14.20;91.70;;;;;;5070523;28;20442;-71
2023/04/28 02:43:30;;;;;;;1.40;1.10;;;14.20;92.10;;;;;;5070528;28;20182;-71
2023/04/28 02:45:56;;;;;;;4.43;1.70;;;14.30;91.60;;;;;;5070548;28;20587;-71
2023/04/28 02:48:22;;;;;;;2.70;1.77;;;14.30;91.80;;;;;;5070548;28;20776;-71
2023/04/28 02:50:48;;;;;;;2.90;1.50;;;14.30;92.50;;;;;;5070482;28;20831;-71
2023/04/28 02:53:14;;;;;;;3.73;1.40;;;14.30;91.80;;;;;;5070514;28;20426;-71
2023/04/28 02:55:40;;;;;;;1.70;1.60;;;14.30;92.40;;;;;;5070391;28;20953;-71
2023/04/28 02:58:05;;;;;;;1.73;1.30;;;14.30;92.70;;;;;;5070180;28;21081;-71
2023/04/28 03:00:31;;;;;;;3.73;1.60;;;14.30;93.20;;;;;;5070351;28;20183;-71
2023/04/28 03:02:57;;;;;;;2.93;2.07;;;14.10;93.40;;;;;;5070246;28;20228;-71
2023/04/28 03:05:22;;;;;;;1.90;1.53;;;14.10;92.60;;;;;;5068666;28;20214;-71
2023/04/28 03:07:48;;;;;;;3.30;1.50;;;14.20;92.80;;;;;;5070182;28;20418;-71
2023/04/28 03:10:13;;;;;;;1.83;1.40;;;14.10;93.20;;;;;;5070248;28;20186;-71
2023/04/28 03:12:40;;;;;;;2.43;1.17;;;14.00;93.70;;;;;;5070703;28;20183;-71
2023/04/28 03:15:07;;;;;;;3.23;1.30;;;14.00;93.50;;;;;;5069957;28;20211;-71
2023/04/28 03:17:35;;;;;;;2.10;1.60;;;14.00;93.90;;;;;;5070340;28;20428;-71
2023/04/28 03:20:01;;;;;;;3.17;1.33;;;14.00;93.30;;;;;;5070077;28;20471;-71
2023/04/28 03:22:27;;;;;;;1.47;1.37;;;14.10;93.50;;;;;;5069862;28;21001;-71
2023/04/28 03:24:53;;;;;;;1.83;1.43;;;14.10;93.70;;;;;;5069858;28;20425;-71
2023/04/28 03:27:18;;;;;;;1.90;1.80;;;14.10;92.80;;;;;;5069869;28;20202;-71
2023/04/28 03:29:44;;;;;;;1.90;1.80;;;14.10;92.80;;;;;;5069606;28;20650;-71
2023/04/28 03:32:09;;;;;;;4.33;1.80;;;14.20;92.60;;;;;;5069710;28;20745;-70
2023/04/28 03:34:35;;;;;;;3.17;1.60;;;14.20;93.10;;;;;;5069512;28;20264;-69
2023/04/28 03:37:01;;;;;;;2.37;2.17;;;14.30;92.60;;;;;;5068144;28;20179;-71
2023/04/28 03:39:26;;;;;;;2.13;1.20;;;14.30;93.40;;;;;;5069269;28;20912;-71
2023/04/28 03:41:52;;;;;;;2.17;1.97;;;14.30;93.70;;;;;;5069459;28;20179;-71
2023/04/28 03:44:18;;;;;;;3.90;1.70;;;14.20;94.60;;;;;;5069121;28;20642;-72
2023/04/28 03:46:43;;;;;;;2.03;1.60;;;14.20;95.50;;;;;;5069326;28;20289;-71
2023/04/28 03:49:09;;;;;;;3.50;1.50;;;14.20;95.60;;;;;;5069310;28;20198;-71
2023/04/28 03:51:34;;;;;;;3.50;1.50;;;14.20;96.60;;;;;;5069397;28;20266;-71
2023/04/28 03:54:00;;;;;;;1.73;1.57;;;14.30;98.20;;;;;;5069192;28;20193;-71
2023/04/28 03:56:26;;;;;;;2.57;1.70;;;14.20;98.10;;;;;;5069256;28;20183;-70
2023/04/28 03:58:52;;;;;;;2.20;1.80;;;14.20;97.20;;;;;;5069278;28;20842;-71
2023/04/28 04:01:17;;;;;;;1.87;1.43;;;14.20;99.60;;;;;;5069280;28;20191;-72
2023/04/28 04:03:43;;;;;;;2.40;1.87;;;14.10;98.80;;;;;;5069480;28;20312;-71
2023/04/28 04:06:09;;;;;;;3.80;1.87;;;14.00;99.90;;;;;;5069274;28;20199;-72
2023/04/28 04:08:34;;;;;;;3.50;1.60;;;13.90;99.90;;;;;;5069081;28;20272;-72
2023/04/28 04:11:00;;;;;;;3.37;2.13;;;13.90;99.90;;;;;;5069019;28;20194;-71
2023/04/28 04:13:25;;;;;;;3.93;1.73;;;13.80;99.90;;;;;;5067737;28;20558;-71
2023/04/28 04:15:51;;;;;;;4.33;2.10;;;13.70;99.90;;;;;;5067405;28;20210;-71
2023/04/28 04:18:17;;;;;;;3.97;2.07;;;13.70;99.90;;;;;;5067738;28;20297;-70
2023/04/28 04:20:43;;;;;;;2.50;1.97;;;13.60;99.90;;;;;;5067453;28;20509;-71
2023/04/28 04:23:09;;;;;;;4.20;2.13;;;13.60;99.90;;;;;;5067318;28;20425;-71
2023/04/28 04:25:35;;;;;;;2.93;2.00;;;13.60;99.90;;;;;;5067201;28;20448;-71
2023/04/28 04:28:00;;;;;;;2.37;2.00;;;13.60;99.90;;;;;;5068049;28;20175;-71
2023/04/28 04:30:26;;;;;;;2.30;2.10;;;13.50;99.90;;;;;;5067283;28;20186;-71
2023/04/28 04:32:52;;;;;;;2.37;2.13;;;13.50;99.90;;;;;;5067221;28;20186;-71
2023/04/28 04:35:18;;;;;;;2.90;2.17;;;13.60;99.90;;;;;;5067000;28;20433;-71
2023/04/28 04:37:43;;;;;;;2.10;1.90;;;13.50;99.90;;;;;;5067128;28;20184;-71
2023/04/28 04:40:09;;;;;;;4.13;1.80;;;13.60;99.90;;;;;;5066906;28;20206;-70
2023/04/28 04:42:35;;;;;;;6.10;2.03;;;13.50;99.90;;;;;;5067008;28;20171;-71
2023/04/28 04:45:00;;;;;;;3.83;2.43;;;13.50;99.90;;;;;;5067017;28;20483;-71
2023/04/28 04:47:27;;;;;;;2.50;2.30;;;13.30;99.90;;;;;;5067140;28;20190;-71
2023/04/28 04:49:52;;;;;;;2.20;2.00;;;13.20;99.90;;;;;;5067016;28;20192;-70
2023/04/28 04:52:18;;;;;;;4.73;2.70;;;13.10;99.90;;;;;;5067136;28;20424;-70
2023/04/28 04:54:44;;;;;;;4.10;2.83;;;13.00;99.90;;;;;;5066790;28;20565;-70
2023/04/28 04:57:11;;;;;;;4.23;2.80;;;12.90;99.90;;;;;;5066868;28;20522;-70
2023/04/28 04:59:37;;;;;;;2.87;2.57;;;12.80;99.90;;;;;;5066092;28;20969;-70
2023/04/28 05:02:02;;;;;;;4.57;2.67;;;12.60;99.90;;;;;;5067137;28;20504;-70
2023/04/28 05:04:28;;;;;;;5.60;2.90;;;12.40;99.90;;;;;;5066911;28;20247;-71
2023/04/28 05:06:53;;;;;;;5.27;2.53;;;12.40;99.90;;;;;;5066800;28;20197;-70
2023/04/28 05:09:19;;;;;;;2.80;2.60;;;12.30;99.90;;;;;;5066947;28;20236;-70
2023/04/28 05:11:45;;;;;;;4.37;2.70;;;12.20;99.90;;;;;;5066725;28;20266;-71
2023/04/28 05:14:11;;;;;;;2.77;2.50;;;12.20;99.90;;;;;;5066576;28;20215;-71
2023/04/28 05:16:37;;;;;;;5.03;3.13;;;12.20;99.90;;;;;;5066787;28;20758;-70
2023/04/28 05:19:04;;;;;;;3.43;3.13;;;12.10;99.90;;;;;;5066982;28;20235;-71
2023/04/28 05:21:29;;;;;;;4.00;2.83;;;12.10;99.90;;;;;;5066914;28;20863;-71
2023/04/28 05:23:56;;;;;;;3.20;2.87;;;12.00;99.90;;;;;;5067199;28;20427;-71
2023/04/28 05:26:22;;;;;;;4.43;3.40;;;12.00;99.90;;;;;;5067109;28;20423;-71
2023/04/28 05:28:48;;;;;;;7.90;2.83;;;12.00;99.90;;;;;;5067212;28;20411;-71
2023/04/28 05:31:13;;;;;;;3.60;2.80;;;12.00;99.90;;;;;;5067095;28;21257;-71
2023/04/28 05:33:39;;;;;;;3.40;3.10;;;12.00;99.90;;;;;;5067420;28;20607;-71
2023/04/28 05:36:05;;;;;;;4.03;2.87;;;12.00;99.90;;;;;;5067352;28;20211;-71
2023/04/28 05:38:32;;;;;;;7.30;2.80;;;11.90;99.90;;;;;;5067071;28;20217;-71
2023/04/28 05:40:58;;;;;;;4.30;2.53;;;11.90;99.90;;;;;;5066668;28;20475;-70
2023/04/28 05:43:23;;;;;;;3.77;3.20;;;11.90;99.90;;;;;;5066944;28;20473;-70
2023/04/28 05:45:49;;;;;;;4.50;3.23;;;11.90;99.90;;;;;;5066926;28;20516;-70
2023/04/28 05:48:15;;;;;;;4.47;2.77;;;11.80;99.90;;;;;;5067127;28;20183;-70
2023/04/28 05:50:41;;;;;;;3.17;2.70;;;11.80;99.90;;;;;;5067343;28;20213;-70
2023/04/28 05:53:06;;;;;;;7.37;3.60;;;11.80;99.90;;;;;;5067203;28;20424;-70
2023/04/28 05:55:35;;;;;;;4.13;3.37;;;11.80;99.90;;;;;;5067210;28;20293;-70
2023/04/28 06:34:38;;;;;;;3.40;2.93;;;12.10;99.90;;;;;;5069658;28;20825;-69
2023/04/28 06:37:04;;;;;;;3.20;3.00;;;12.20;99.90;;;;;;5069524;28;20419;-70
2023/04/28 06:39:29;;;;;;;3.47;3.00;;;12.30;99.90;;;;;;5069831;28;20259;-70
2023/04/28 06:41:55;;;;;;;4.03;3.03;;;12.40;99.90;;;;;;5070045;28;20184;-70
2023/04/28 06:44:21;;;;;;;3.20;2.90;;;12.40;99.90;;;;;;5069648;28;20235;-70
2023/04/28 06:46:46;;;;;;;3.03;2.83;;;12.40;99.90;;;;;;5069825;28;20217;-70
2023/04/28 06:49:12;;;;;;;4.83;2.83;;;12.40;99.90;;;;;;5069711;28;20179;-71
2023/04/28 06:51:37;;;;;;;3.80;2.90;;;12.40;99.90;;;;;;5069672;28;20189;-71
2023/04/28 06:54:03;;;;;;;3.20;2.87;;;12.40;99.90;;;;;;5069936;28;20202;-70
2023/04/28 06:56:28;;;;;;;4.83;2.97;;;12.40;99.90;;;;;;5069643;28;20210;-71
2023/04/28 06:58:56;;;;;;;4.70;3.30;;;12.40;99.90;;;;;;5070453;28;20736;-71
2023/04/28 07:01:21;;;;;;;2.57;2.30;;;12.30;99.90;;;;;;5069876;28;20194;-71
2023/04/28 07:03:47;;;;;;;4.97;2.83;;;12.30;99.90;;;;;;5070297;28;20426;-70
2023/04/28 07:06:13;;;;;;;2.70;2.50;;;12.30;99.90;;;;;;5069914;28;20884;-71
2023/04/28 07:08:39;;;;;;;2.60;2.40;;;12.20;99.90;;;;;;5069880;28;20211;-71
2023/04/28 07:11:05;;;;;;;2.60;2.30;;;12.10;99.90;;;;;;5069867;28;20189;-71
2023/04/28 07:13:31;;;;;;;2.50;2.30;;;12.10;99.90;;;;;;5069768;28;20183;-71
2023/04/28 07:15:57;;;;;;;2.63;2.43;;;12.20;99.90;;;;;;5069406;28;20952;-71
2023/04/28 07:18:22;;;;;;;5.60;1.90;;;12.10;99.90;;;;;;5069555;28;20462;-70
2023/04/28 07:20:48;;;;;;;2.43;2.23;;;12.00;99.90;;;;;;5069202;28;20173;-70
2023/04/28 07:23:14;;;;;;;2.47;2.27;;;11.90;99.90;;;;;;5068722;28;20190;-70
2023/04/28 07:25:40;;;;;;;5.03;2.10;;;11.90;99.90;;;;;;5069953;28;20274;-71
2023/04/28 07:28:06;;;;;;;2.00;1.80;;;11.90;99.90;;;;;;5069105;28;20423;-70
2023/04/28 07:30:33;;;;;;;5.50;2.10;;;12.00;99.90;;;;;;5069502;28;20420;-71
2023/04/28 07:32:59;;;;;;;2.07;1.97;;;12.10;99.90;;;;;;5069518;28;20507;-70
2023/04/28 07:35:24;;;;;;;5.63;1.83;;;12.20;99.90;;;;;;5068950;28;20602;-70
2023/04/28 07:37:50;;;;;;;1.77;1.63;;;12.10;99.90;;;;;;5084283;28;20431;-70
2023/04/28 07:40:17;;;;;;;2.20;2.00;;;12.20;99.90;;;;;;5068494;28;20973;-71
2023/04/28 07:42:43;;;;;;;1.50;1.40;;;12.10;99.90;;;;;;5068606;28;20432;-70
2023/04/28 07:45:09;;;;;;;1.67;1.57;;;12.20;99.90;;;;;;5068581;28;20443;-70
2023/04/28 07:47:35;;;;;;;1.50;1.30;;;12.20;99.90;;;;;;5068832;28;20189;-70
2023/04/28 07:50:04;;;;;;;1.87;1.70;;;12.10;99.90;;;;;;5068700;28;20468;-70
2023/04/28 07:52:30;;;;;;;1.30;1.20;;;12.20;99.90;;;;;;5068605;28;20177;-70
2023/04/28 07:54:56;;;;;;;2.30;1.30;;;12.20;99.90;;;;;;5068546;28;20439;-70
2023/04/28 07:57:22;;;;;;;1.40;1.30;;;12.20;99.90;;;;;;5068507;28;20498;-69
2023/04/28 07:59:47;;;;;;;2.70;1.53;;;12.20;99.90;;;;;;5068501;28;20205;-70
2023/04/28 08:02:13;;;;;;;1.50;1.40;;;12.20;99.90;;;;;;5068495;28;20230;-70
2023/04/28 08:04:39;;;;;;;3.63;1.30;;;12.30;99.90;;;;;;5068421;28;20572;-70
2023/04/28 08:07:05;;;;;;;1.87;1.30;;;12.20;99.90;;;;;;5068221;28;20422;-70
2023/04/28 08:09:31;;;;;;;1.63;1.33;;;12.20;99.90;;;;;;5068157;28;20414;-70
2023/04/28 08:11:57;;;;;;;1.00;0.90;;;12.30;99.90;;;;;;5067846;28;20517;-69
2023/04/28 08:14:24;;;;;;;2.00;1.00;;;12.30;99.90;;;;;;5067874;28;20475;-69
2023/04/28 08:16:50;;;;;;;1.77;1.50;;;12.40;99.90;;;;;;5068654;28;20420;-70
2023/04/28 08:19:16;;;;;;;1.73;1.33;;;12.30;99.90;;;;;;5067503;28;20474;-70
2023/04/28 08:21:42;;;;;;;1.33;1.00;;;12.30;99.90;;;;;;5067536;28;20421;-70
2023/04/28 08:24:09;;;;;;;4.90;1.30;;;12.40;99.90;;;;;;5067160;28;20186;-70
2023/04/28 08:26:38;;;;;;;1.10;1.00;;;12.40;99.90;;;;;;5067120;28;20180;-70
2023/04/28 08:29:04;;;;;;;1.20;1.10;;;12.40;99.90;;;;;;5067562;28;20764;-69
2023/04/28 08:31:30;;;;;;;1.40;1.30;;;12.50;99.90;;;;;;5067252;28;20416;-70
2023/04/28 08:33:55;;;;;;;6.43;1.57;;;12.50;99.90;;;;;;5066403;28;20476;-69
2023/04/28 08:36:23;;;;;;;1.13;1.03;;;12.40;99.90;;;;;;5067109;28;20912;-69
2023/04/28 08:38:49;;;;;;;2.40;1.33;;;12.50;99.90;;;;;;5066876;28;20772;-69
2023/04/28 08:41:15;;;;;;;1.47;1.00;;;12.40;99.90;;;;;;5066960;28;20539;-70
2023/04/28 08:43:42;;;;;;;3.07;1.57;;;12.40;99.90;;;;;;5067001;28;20208;-69
2023/04/28 08:46:08;;;;;;;1.90;1.70;;;12.40;99.90;;;;;;5066940;28;20836;-70
2023/04/28 08:48:43;;;;;;;1.30;1.20;;;12.40;99.90;;;;;;5067382;28;20440;-69
2023/04/28 08:51:15;;;;;;;1.17;1.00;;;12.40;99.90;;;;;;5067509;28;20419;-70
2023/04/28 08:53:48;;;;;;;2.63;1.80;;;12.40;99.90;;;;;;5066229;28;20427;-70
2023/04/28 08:56:15;;;;;;;1.33;1.10;;;12.50;99.90;;;;;;5067566;28;20412;-70
2023/04/28 08:58:42;;;;;;;1.33;1.23;;;12.50;99.90;;;;;;5067449;28;20472;-69
2023/04/28 09:01:08;;;;;;;2.30;2.10;;;12.50;99.90;;;;;;5067136;28;20849;-71
2023/04/28 09:03:34;;;;;;;125.67;57.47;;;12.50;99.90;;;;;;5067075;28;20473;-71
2023/04/28 09:06:01;;;;;;;2.27;2.07;;;12.60;99.90;;;;;;5066953;28;20438;-71
2023/04/28 09:08:27;;;;;;;1.73;1.63;;;12.70;99.90;;;;;;5066841;28;20180;-70
2023/04/28 09:11:10;;;;;;;1.67;1.37;;;12.70;99.90;;;;;;5067253;28;20427;-71
2023/04/28 09:13:36;;;;;;;1.23;1.13;;;12.90;99.90;;;;;;5067915;28;20434;-71
2023/04/28 09:16:03;;;;;;;7.03;1.40;;;13.00;99.90;;;;;;5067001;28;20805;-70
2023/04/28 09:18:31;;;;;;;1.60;1.50;;;13.00;99.90;;;;;;5067229;28;20206;-69
2023/04/28 09:21:10;;;;;;;1.20;1.10;;;13.10;99.90;;;;;;5067004;28;20424;-70
2023/04/28 09:23:48;;;;;;;1.50;1.30;;;13.10;99.90;;;;;;5067353;28;20426;-70
2023/04/28 09:26:13;;;;;;;1.60;1.50;;;13.10;99.90;;;;;;5067466;28;20867;-69
2023/04/28 09:28:39;;;;;;;1.80;1.70;;;13.10;99.90;;;;;;5066888;28;20853;-68
2023/04/28 09:31:05;;;;;;;3.57;1.50;;;13.10;99.90;;;;;;5066664;28;20197;-69
2023/04/28 09:33:31;;;;;;;1.10;1.00;;;13.20;99.90;;;;;;5066768;28;20465;-69
2023/04/28 09:35:56;;;;;;;1.20;1.10;;;13.30;99.90;;;;;;5066865;28;20205;-70
2023/04/28 09:38:22;;;;;;;2.03;1.43;;;13.30;99.90;;;;;;5066695;28;20464;-68
2023/04/28 09:40:59;;;;;;;2.50;1.37;;;13.40;99.90;;;;;;5066953;28;20235;-70
2023/04/28 09:43:34;;;;;;;2.53;1.10;;;13.50;99.90;;;;;;5067141;28;20903;-70
2023/04/28 09:46:02;;;;;;;2.40;1.30;;;13.60;99.90;;;;;;5068955;28;20438;-69
2023/04/28 09:48:29;;;;;;;1.57;0.83;;;13.70;99.90;;;;;;5071169;28;20425;-70
2023/04/28 09:50:55;;;;;;;1.20;1.10;;;13.80;99.90;;;;;;5070995;28;20502;-69
2023/04/28 09:53:28;;;;;;;1.33;1.07;;;13.90;99.90;;;;;;5071019;28;21079;-70
2023/04/28 09:55:55;;;;;;;0.90;0.90;;;14.10;99.90;;;;;;5070554;28;20493;-70
2023/04/28 09:58:22;;;;;;;1.30;1.20;;;14.10;99.90;;;;;;5070685;28;20529;-70
2023/04/28 10:00:54;;;;;;;5.53;1.10;;;14.10;99.90;;;;;;5070488;28;20948;-69
2023/04/28 10:03:22;;;;;;;2.07;0.90;;;14.20;99.90;;;;;;5070520;28;20411;-70
2023/04/28 10:05:49;;;;;;;1.33;1.17;;;14.20;99.90;;;;;;5070288;28;20831;-70
2023/04/28 10:08:15;;;;;;;1.17;0.90;;;14.30;99.90;;;;;;5070253;28;20432;-69
2023/04/28 10:10:42;;;;;;;1.60;0.80;;;14.50;99.90;;;;;;5070236;28;20409;-69
2023/04/28 10:13:08;;;;;;;1.73;1.07;;;14.50;99.90;;;;;;5070180;28;20284;-70
2023/04/28 10:15:35;;;;;;;1.23;0.77;;;14.60;99.90;;;;;;5069946;28;20519;-69
2023/04/28 10:18:02;;;;;;;0.90;0.67;;;14.60;99.90;;;;;;5069497;28;20417;-70
2023/04/28 10:20:29;;;;;;;0.80;0.60;;;14.80;99.90;;;;;;5070144;28;20540;-70
2023/04/28 10:23:14;;;;;;;1.47;0.60;;;15.00;99.90;;;;;;5069794;28;20467;-70
2023/04/28 10:25:41;;;;;;;1.30;0.77;;;14.90;99.90;;;;;;5069694;28;20459;-69
2023/04/28 10:28:08;;;;;;;2.13;0.77;;;15.10;99.90;;;;;;5069817;28;20464;-69
2023/04/28 10:30:34;;;;;;;2.07;0.60;;;15.20;99.90;;;;;;5070065;28;20443;-69
2023/04/28 10:33:12;;;;;;;0.80;0.63;;;15.30;99.90;;;;;;5070024;28;20492;-69
2023/04/28 10:35:42;;;;;;;0.90;0.50;;;15.40;99.90;;;;;;5069660;28;20433;-70
2023/04/28 10:38:08;;;;;;;1.33;0.70;;;15.60;99.90;;;;;;5069757;28;20462;-70
2023/04/28 10:40:35;;;;;;;1.10;0.60;;;15.90;99.90;;;;;;5069697;28;20498;-70
2023/04/28 10:43:02;;;;;;;1.00;0.60;;;16.00;99.90;;;;;;5069851;28;20411;-70
2023/04/28 10:45:52;;;;;;;0.90;0.60;;;16.30;99.90;;;;;;5069670;28;20441;-70
2023/04/28 10:48:19;;;;;;;3.53;0.77;;;16.50;99.90;;;;;;5070146;28;21117;-70
2023/04/28 10:51:03;;;;;;;1.33;0.53;;;16.60;99.90;;;;;;5069862;28;20421;-70
2023/04/28 10:53:53;;;;;;;1.10;0.70;;;16.60;99.90;;;;;;5069381;28;20873;-70
2023/04/28 10:56:26;;;;;;;1.90;0.70;;;16.70;99.90;;;;;;5068740;28;20933;-70
2023/04/28 10:58:58;;;;;;;1.73;0.60;;;16.80;99.90;;;;;;5068688;28;20469;-69
2023/04/28 11:01:29;;;;;;;3.83;0.70;;;16.80;99.90;;;;;;5069211;28;20517;-68
2023/04/28 11:04:06;;;;;;;1.10;0.60;;;16.70;99.90;;;;;;5069128;28;20487;-69
2023/04/28 11:06:38;;;;;;;0.90;0.60;;;16.70;99.90;;;;;;5084729;28;20460;-70
2023/04/28 11:09:13;;;;;;;0.80;0.60;;;16.70;99.90;;;;;;5084703;28;20798;-70
2023/04/28 11:12:09;;;;;;;1.77;0.80;;;16.60;99.90;;;;;;5069012;28;20423;-70
2023/04/28 11:14:37;;;;;;;0.90;0.80;;;16.60;99.90;;;;;;5069030;28;20438;-70
2023/04/28 11:17:04;;;;;;;1.00;0.60;;;16.40;99.90;;;;;;5084613;28;20422;-70
2023/04/28 11:19:44;;;;;;;0.80;0.70;;;16.40;99.90;;;;;;5069233;28;20467;-70
2023/04/28 11:22:16;;;;;;;0.90;0.73;;;16.70;99.90;;;;;;5084549;28;20510;-69
2023/04/28 11:24:55;;;;;;;2.33;0.80;;;16.90;99.90;;;;;;5068878;28;20453;-69
2023/04/28 11:27:25;;;;;;;0.80;0.80;;;17.00;99.90;;;;;;5068882;28;20421;-69
2023/04/28 11:29:51;;;;;;;0.80;0.70;;;16.90;99.90;;;;;;5068588;28;20463;-70
2023/04/28 11:32:28;;;;;;;1.20;0.80;;;16.90;99.90;;;;;;5068579;28;20462;-70
2023/04/28 11:34:54;;;;;;;0.80;0.70;;;17.00;99.90;;;;;;5067159;28;20585;-70
2023/04/28 11:37:20;;;;;;;0.90;0.77;;;17.00;99.90;;;;;;5068506;28;20416;-70
2023/04/28 11:39:46;;;;;;;1.00;0.90;;;17.00;99.90;;;;;;5068197;28;20225;-70
2023/04/28 11:42:12;;;;;;;1.17;0.80;;;17.00;99.90;;;;;;5068425;28;20454;-70
2023/04/28 11:44:38;;;;;;;5.47;0.90;;;17.00;99.90;;;;;;5068174;28;20954;-70
2023/04/28 11:47:05;;;;;;;1.40;0.80;;;16.90;99.90;;;;;;5068635;28;20211;-69
2023/04/28 11:49:35;;;;;;;1.20;0.53;;;16.90;99.90;;;;;;5068198;28;20441;-69
2023/04/28 11:52:05;;;;;;;1.67;0.90;;;16.80;99.90;;;;;;5067976;28;20482;-69
2023/04/28 11:54:31;;;;;;;2.07;1.13;;;16.80;99.90;;;;;;5066701;28;20487;-69
2023/04/28 11:56:59;;;;;;;1.43;0.60;;;16.90;99.90;;;;;;5067929;28;20432;-69
2023/04/28 11:59:27;;;;;;;1.00;0.70;;;16.90;99.90;;;;;;5067900;28;20539;-69
2023/04/28 12:01:56;;;;;;;1.73;0.90;;;17.00;99.90;;;;;;5067886;28;20420;-68
2023/04/28 12:04:38;;;;;;;5.03;0.77;;;17.10;99.90;;;;;;5067827;28;20440;-69
2023/04/28 12:07:05;;;;;;;1.30;0.80;;;17.30;99.90;;;;;;5067762;28;20418;-69
2023/04/28 12:09:32;;;;;;;1.37;0.60;;;17.30;99.90;;;;;;5067853;28;20425;-70
2023/04/28 12:12:03;;;;;;;0.80;0.50;;;17.30;99.90;;;;;;5067846;28;20419;-70
2023/04/28 12:14:31;;;;;;;1.00;0.60;;;17.30;99.90;;;;;;5068200;28;20464;-70
2023/04/28 12:16:57;;;;;;;0.83;0.50;;;17.30;99.90;;;;;;5067308;28;20429;-69
2023/04/28 12:19:23;;;;;;;1.20;0.60;;;17.30;99.90;;;;;;5066366;28;20475;-69
2023/04/28 12:22:06;;;;;;;1.00;0.60;;;17.30;99.90;;;;;;5067977;28;20756;-69
2023/04/28 12:24:34;;;;;;;0.90;0.70;;;17.20;99.90;;;;;;5067995;28;20281;-69
2023/04/28 12:27:23;;;;;;;6.97;0.53;;;17.10;99.90;;;;;;5068393;28;20755;-69
2023/04/28 12:29:50;;;;;;;0.80;0.50;;;17.00;99.90;;;;;;5067976;28;20426;-70
2023/04/28 12:32:17;;;;;;;1.20;0.50;;;17.10;99.90;;;;;;5067897;28;20507;-70
2023/04/28 12:34:44;;;;;;;4.60;0.70;;;17.10;99.90;;;;;;5067784;28;20444;-70
2023/04/28 12:37:11;;;;;;;1.00;0.50;;;17.20;99.90;;;;;;5067950;28;20407;-70
2023/04/28 12:39:38;;;;;;;1.40;0.57;;;17.10;99.90;;;;;;5067915;28;20498;-70
2023/04/28 12:42:05;;;;;;;0.80;0.50;;;17.00;99.90;;;;;;5068078;28;20412;-69
2023/04/28 12:44:34;;;;;;;1.33;0.70;;;16.90;99.90;;;;;;5068378;28;20543;-68
2023/04/28 12:47:09;;;;;;;1.00;0.50;;;17.00;99.90;;;;;;5068421;28;20408;-69
2023/04/28 12:49:36;;;;;;;0.80;0.50;;;17.00;99.90;;;;;;5067145;28;20547;-67
2023/04/28 12:52:02;;;;;;;2.83;0.60;;;17.30;99.90;;;;;;5068055;28;20423;-69
2023/04/28 12:54:28;;;;;;;1.40;0.80;;;17.40;99.90;;;;;;5068161;28;20445;-69
2023/04/28 12:56:54;;;;;;;1.40;0.70;;;17.40;99.90;;;;;;5068292;28;20427;-69
2023/04/28 12:59:20;;;;;;;1.53;0.50;;;17.50;99.90;;;;;;5068718;28;20206;-69
2023/04/28 13:01:46;;;;;;;0.80;0.50;;;17.60;99.90;;;;;;5068289;28;20179;-69
2023/04/28 13:04:12;;;;;;;2.97;0.50;;;17.50;99.90;;;;;;5067795;28;20441;-69
2023/04/28 13:06:39;;;;;;;2.20;0.50;;;17.30;99.90;;;;;;5067826;28;20819;-69
2023/04/28 13:09:06;;;;;;;2.17;0.57;;;17.30;99.90;;;;;;5067662;28;20268;-69
2023/04/28 13:11:31;;;;;;;2.20;0.60;;;17.30;99.90;;;;;;5067574;28;20428;-69
2023/04/28 13:13:57;;;;;;;0.80;0.40;;;17.50;99.90;;;;;;5067570;28;20445;-69
2023/04/28 13:16:28;;;;;;;0.70;0.50;;;17.90;99.90;;;;;;5067789;28;20190;-70
2023/04/28 13:18:54;;;;;;;0.73;0.40;;;18.10;99.90;;;;;;5067875;28;20215;-70
2023/04/28 13:21:19;;;;;;;0.80;0.50;;;18.50;99.90;;;;;;5070015;28;20416;-70
2023/04/28 13:23:45;;;;;;;0.80;0.50;;;18.60;99.90;;;;;;5071820;28;20424;-70
2023/04/28 13:26:11;;;;;;;0.80;0.50;;;18.30;99.90;;;;;;5071760;28;20625;-71